Terminal Aerodrome Forecast
Issued by NWS

Home | Current Version | Previous Version | Text Only | Print | Product List | Glossary On
Versions: 1 2 3 4 5 6 7 8 9 10 11 12 13 14 15 16 17 18 19 20 21 22 23 24 25 26 27 28 29 30 31 32 33 34 35 36
000
FTUS42 KRAH 181454 AAA
TAFINT
TAF AMD
KINT 181454Z 1815/1912 17006KT P6SM OVC100
     FM181530 18008KT P6SM BKN030 OVC100
     FM181800 20010G16KT P6SM -RA OVC015
     FM182100 21011G18KT 4SM -RA OVC009 WS020/21046KT
     FM190500 22009G16KT 6SM BR OVC008 WS020/26038KT
     FM190800 28009KT P6SM SCT015 SCT180=

USA.gov is the U.S. government's official web portal to all federal, state and local government web resources and services.